createdAt,value
2022-10-30T00:04:11.220Z,26.80
2022-10-30T00:08:58.854Z,23.90
2022-10-30T00:13:46.166Z,26.45
2022-10-30T00:18:31.168Z,26.63
2022-10-30T00:23:17.382Z,23.02
2022-10-30T00:28:05.124Z,26.20
2022-10-30T00:32:50.395Z,23.40
2022-10-30T00:37:35.427Z,28.45
2022-10-30T00:42:20.951Z,23.00
2022-10-30T00:47:14.973Z,29.08
2022-10-30T00:52:00.316Z,22.00
2022-10-30T00:56:46.539Z,25.77
2022-10-30T01:01:35.645Z,25.48
2022-10-30T01:06:23.483Z,22.20
2022-10-30T01:11:10.698Z,26.35
2022-10-30T01:16:12.236Z,27.23
2022-10-30T01:21:15.915Z,30.92
2022-10-30T01:26:11.400Z,32.92
2022-10-30T01:31:10.568Z,28.55
2022-10-30T01:36:02.252Z,24.48
2022-10-30T01:40:47.718Z,30.83
2022-10-30T01:45:52.314Z,29.05
2022-10-30T01:50:46.012Z,32.13
2022-10-30T01:55:40.170Z,26.42
2022-10-30T02:00:26.276Z,29.38
2022-10-30T02:05:21.345Z,33.70
2022-10-30T02:10:08.218Z,30.65
2022-10-30T02:14:57.271Z,32.55
2022-10-30T02:19:42.955Z,30.77
2022-10-30T02:24:31.444Z,32.03
2022-10-30T02:29:18.690Z,31.08
2022-10-30T02:34:03.663Z,33.42
2022-10-30T02:38:49.108Z,30.25
2022-10-30T02:43:36.956Z,31.33
2022-10-30T02:48:22.225Z,36.35
2022-10-30T02:53:07.210Z,32.20
2022-10-30T02:57:52.466Z,33.75
2022-10-30T03:02:40.130Z,33.42
2022-10-30T03:07:25.457Z,34.45
2022-10-30T03:12:10.552Z,33.60
2022-10-30T03:16:56.018Z,32.80
2022-10-30T03:21:43.648Z,32.90
2022-10-30T03:26:29.056Z,33.80
2022-10-30T03:31:16.475Z,36.28
2022-10-30T03:36:01.986Z,32.88
2022-10-30T03:40:49.571Z,37.72
2022-10-30T03:45:35.442Z,33.65
2022-10-30T03:50:20.424Z,34.33
2022-10-30T03:55:05.699Z,37.30
2022-10-30T03:59:53.531Z,36.75
2022-10-30T04:04:38.768Z,44.80
2022-10-30T04:09:23.711Z,38.47
2022-10-30T04:14:09.189Z,39.70
2022-10-30T04:18:56.861Z,39.85
2022-10-30T04:23:42.148Z,32.13
2022-10-30T04:28:27.144Z,32.40
2022-10-30T04:33:15.268Z,33.53
2022-10-30T04:38:04.301Z,34.00
2022-10-30T04:42:50.167Z,34.42
2022-10-30T04:47:35.169Z,39.80
2022-10-30T04:52:20.427Z,34.47
2022-10-30T04:57:09.198Z,40.92
2022-10-30T05:01:54.595Z,42.22
2022-10-30T05:06:39.993Z,37.15
2022-10-30T05:11:25.775Z,43.08
2022-10-30T05:16:13.565Z,42.63
2022-10-30T05:20:58.861Z,40.75
2022-10-30T05:25:43.938Z,36.63
2022-10-30T05:30:29.724Z,38.80
2022-10-30T05:35:17.485Z,38.70
2022-10-30T05:40:02.871Z,32.10
2022-10-30T05:45:00.286Z,38.75
2022-10-30T05:49:46.005Z,38.08
2022-10-30T05:54:33.758Z,38.95
2022-10-30T05:59:18.991Z,35.15
2022-10-30T06:04:04.007Z,37.70
2022-10-30T06:08:49.319Z,37.85
2022-10-30T06:13:36.936Z,33.33
2022-10-30T06:18:22.193Z,44.10
2022-10-30T06:23:08.463Z,36.38
2022-10-30T06:27:57.128Z,39.63
2022-10-30T06:32:44.912Z,33.72
2022-10-30T06:37:30.438Z,35.85
2022-10-30T06:42:15.594Z,38.53
2022-10-30T06:47:00.887Z,34.15
2022-10-30T06:51:48.625Z,37.92
2022-10-30T06:56:33.929Z,38.58
2022-10-30T07:01:18.960Z,32.75
2022-10-30T07:06:04.583Z,34.25
2022-10-30T07:10:52.178Z,32.38
2022-10-30T07:15:37.613Z,32.55
2022-10-30T07:20:22.809Z,32.65
2022-10-30T07:25:08.707Z,32.53
2022-10-30T07:29:56.391Z,35.28
2022-10-30T07:34:41.676Z,30.88
2022-10-30T07:39:26.645Z,30.58
2022-10-30T07:44:11.916Z,36.53
2022-10-30T07:49:01.710Z,33.63
2022-10-30T07:53:48.059Z,36.63
2022-10-30T07:58:33.027Z,33.78
2022-10-30T08:03:18.609Z,35.10
2022-10-30T08:08:06.793Z,33.70
2022-10-30T08:12:52.066Z,34.15
2022-10-30T08:17:43.948Z,30.65
2022-10-30T08:22:29.583Z,35.13
2022-10-30T08:27:17.163Z,29.33
2022-10-30T08:32:02.465Z,31.65
2022-10-30T08:36:49.376Z,32.60
2022-10-30T08:41:34.749Z,30.73
2022-10-30T08:46:22.573Z,30.15
2022-10-30T08:51:08.104Z,30.10
2022-10-30T08:55:54.359Z,31.98
2022-10-30T09:00:39.648Z,36.80
2022-10-30T09:05:27.441Z,34.30
2022-10-30T09:10:13.945Z,28.55
2022-10-30T09:14:58.913Z,29.67
2022-10-30T09:19:44.190Z,32.65
2022-10-30T09:24:31.802Z,31.05
2022-10-30T09:29:17.096Z,29.35
2022-10-30T09:34:02.092Z,28.85
2022-10-30T09:38:47.336Z,26.85
2022-10-30T09:43:46.472Z,22.90
2022-10-30T09:48:47.181Z,20.05
2022-10-30T09:53:41.548Z,24.33
2022-10-30T09:58:34.667Z,20.50
2022-10-30T10:03:41.572Z,20.30
2022-10-30T10:08:32.586Z,16.50
2022-10-30T10:13:32.565Z,22.02
2022-10-30T10:18:22.031Z,21.15
2022-10-30T10:23:19.075Z,22.95
2022-10-30T10:28:17.559Z,21.63
2022-10-30T10:33:29.198Z,18.08
2022-10-30T10:38:30.266Z,20.10
2022-10-30T10:43:27.414Z,19.67
2022-10-30T10:48:32.958Z,16.75
2022-10-30T10:53:25.813Z,16.35
2022-10-30T10:58:19.477Z,12.10
2022-10-30T11:03:12.569Z,16.50
2022-10-30T11:08:02.523Z,19.48
2022-10-30T11:12:50.394Z,14.18
2022-10-30T11:17:42.297Z,8.98
2022-10-30T11:22:31.483Z,10.68
2022-10-30T11:27:28.494Z,9.13
2022-10-30T11:32:22.728Z,8.52
2022-10-30T11:37:08.290Z,8.13
2022-10-30T11:42:00.348Z,10.52
2022-10-30T11:46:45.817Z,10.43
2022-10-30T11:51:38.881Z,8.13
2022-10-30T11:56:25.843Z,10.52
2022-10-30T12:01:20.862Z,7.35
2022-10-30T12:06:14.311Z,13.68
2022-10-30T12:11:08.806Z,16.15
2022-10-30T12:16:07.664Z,7.85
2022-10-30T12:20:56.893Z,9.55
2022-10-30T12:25:42.458Z,9.73
2022-10-30T12:30:35.638Z,11.27
2022-10-30T12:35:42.352Z,7.82
2022-10-30T12:40:31.298Z,9.48
2022-10-30T12:45:19.507Z,12.93
2022-10-30T12:50:19.122Z,13.85
2022-10-30T12:55:11.443Z,14.60
2022-10-30T13:00:04.609Z,11.75
2022-10-30T13:04:57.978Z,12.55
2022-10-30T13:09:51.609Z,11.93
2022-10-30T13:14:43.284Z,12.80
2022-10-30T13:19:28.604Z,12.35
2022-10-30T13:24:18.645Z,13.18
2022-10-30T13:29:14.297Z,11.10
2022-10-30T13:34:06.373Z,14.57
2022-10-30T13:43:49.165Z,9.35
2022-10-30T13:53:35.821Z,10.57
2022-10-30T13:58:26.195Z,13.00
2022-10-30T14:03:36.491Z,8.25
2022-10-30T14:08:35.985Z,7.78
2022-10-30T14:13:28.071Z,5.03
2022-10-30T14:23:17.671Z,8.60
2022-10-30T14:28:05.435Z,5.30
2022-10-30T14:32:54.833Z,7.90
2022-10-30T14:37:59.048Z,5.85
2022-10-30T14:42:50.429Z,11.57
2022-10-30T14:47:51.704Z,9.17
2022-10-30T14:52:48.057Z,12.60
2022-10-30T14:57:48.776Z,7.00
2022-10-30T15:02:49.290Z,8.27
2022-10-30T15:07:44.264Z,7.05
2022-10-30T15:13:16.784Z,8.02
2022-10-30T15:18:10.524Z,6.82
2022-10-30T15:23:02.904Z,6.10
2022-10-30T15:27:50.225Z,4.97
2022-10-30T15:32:35.318Z,8.80
2022-10-30T15:37:20.677Z,6.68
2022-10-30T15:42:08.507Z,6.95
2022-10-30T15:46:56.719Z,6.72
2022-10-30T15:51:48.721Z,7.50
2022-10-30T15:56:44.461Z,5.68
2022-10-30T16:01:49.302Z,7.00
2022-10-30T16:06:35.399Z,7.68
2022-10-30T16:11:22.802Z,8.60
2022-10-30T16:16:09.087Z,8.25
2022-10-30T16:20:58.447Z,6.28
2022-10-30T16:25:47.237Z,7.28
2022-10-30T16:30:34.047Z,4.72
2022-10-30T16:35:19.160Z,13.70
2022-10-30T16:40:14.963Z,5.95
2022-10-30T16:45:43.030Z,7.00
2022-10-30T16:50:34.647Z,7.85
2022-10-30T16:55:24.915Z,5.55
2022-10-30T17:00:25.945Z,6.13
2022-10-30T17:05:20.539Z,7.47
2022-10-30T17:10:05.670Z,7.63
2022-10-30T17:14:56.452Z,6.50
2022-10-30T17:19:49.703Z,4.43
2022-10-30T17:24:36.945Z,6.18
2022-10-30T17:29:47.387Z,7.47
2022-10-30T17:34:40.225Z,6.72
2022-10-30T17:39:25.221Z,7.85
2022-10-30T17:44:18.197Z,4.75
2022-10-30T17:49:03.496Z,11.15
2022-10-30T17:53:52.133Z,9.85
2022-10-30T17:58:37.127Z,5.57
2022-10-30T18:03:22.411Z,6.43
2022-10-30T18:08:08.033Z,8.27
2022-10-30T18:13:13.144Z,5.97
2022-10-30T18:17:58.773Z,5.35
2022-10-30T18:22:43.767Z,5.95
2022-10-30T18:27:29.035Z,8.48
2022-10-30T18:32:16.670Z,12.80
2022-10-30T18:37:01.886Z,14.00
2022-10-30T18:41:49.625Z,14.48
2022-10-30T18:46:36.574Z,17.95
2022-10-30T18:51:26.991Z,15.48
2022-10-30T18:56:13.190Z,13.63
2022-10-30T19:01:11.589Z,14.13
2022-10-30T19:05:57.467Z,8.38
2022-10-30T19:10:46.600Z,16.17
2022-10-30T19:15:36.039Z,13.20
2022-10-30T19:20:24.849Z,12.55
2022-10-30T19:25:23.672Z,10.50
2022-10-30T19:30:12.919Z,14.65
2022-10-30T19:34:58.214Z,9.75
2022-10-30T19:39:43.267Z,8.75
2022-10-30T19:44:28.529Z,7.57
2022-10-30T19:49:21.536Z,7.38
2022-10-30T19:54:07.157Z,7.45
2022-10-30T19:58:52.852Z,6.63
2022-10-30T20:03:38.108Z,7.13
2022-10-30T20:08:28.187Z,9.68
2022-10-30T20:13:14.226Z,9.88
2022-10-30T20:18:00.528Z,11.32
2022-10-30T20:22:46.132Z,6.65
2022-10-30T20:27:33.735Z,7.07
2022-10-30T20:32:19.011Z,6.97
2022-10-30T20:37:04.016Z,6.85
2022-10-30T20:41:49.306Z,7.32
2022-10-30T20:46:36.873Z,6.78
2022-10-30T20:51:22.143Z,9.45
2022-10-30T20:56:07.828Z,6.03
2022-10-30T21:00:54.015Z,7.80
2022-10-30T21:05:44.171Z,8.73
2022-10-30T21:10:30.699Z,6.37
2022-10-30T21:15:15.796Z,8.30
2022-10-30T21:20:01.139Z,7.35
2022-10-30T21:24:48.731Z,11.98
2022-10-30T21:29:35.181Z,13.30
2022-10-30T21:34:20.679Z,12.52
2022-10-30T21:39:05.999Z,15.05
2022-10-30T21:43:58.147Z,12.88
2022-10-30T21:48:43.453Z,11.70
2022-10-30T21:53:28.416Z,16.38
2022-10-30T21:58:13.686Z,11.35
2022-10-30T22:03:01.880Z,7.78
2022-10-30T22:07:47.135Z,10.80
2022-10-30T22:12:32.327Z,6.90
2022-10-30T22:17:17.611Z,8.57
2022-10-30T22:22:05.240Z,10.60
2022-10-30T22:26:50.503Z,9.80
2022-10-30T22:31:35.508Z,6.45
2022-10-30T22:36:23.099Z,8.60
2022-10-30T22:41:18.873Z,8.10
2022-10-30T22:46:04.169Z,7.18
2022-10-30T22:50:49.207Z,8.65
2022-10-30T22:55:34.480Z,7.45
2022-10-30T23:00:28.096Z,7.45
2022-10-30T23:05:13.420Z,7.35
2022-10-30T23:09:59.356Z,7.43
2022-10-30T23:14:44.649Z,6.45
2022-10-30T23:19:32.411Z,8.13
2022-10-30T23:24:17.668Z,9.27
2022-10-30T23:29:04.502Z,11.90
2022-10-30T23:33:51.152Z,8.07
2022-10-30T23:38:38.826Z,10.77
2022-10-30T23:43:27.655Z,9.60
2022-10-30T23:48:13.878Z,9.48
2022-10-30T23:52:59.187Z,9.43
2022-10-30T23:57:50.105Z,9.98
